createdAt,value
2023-04-18T00:00:15.363Z,100041.13
2023-04-18T00:02:44.262Z,100035.69
2023-04-18T00:05:18.409Z,100038.09
2023-04-18T00:07:46.209Z,100033.34
2023-04-18T00:10:13.929Z,100027.78
2023-04-18T00:12:41.131Z,100032.19
2023-04-18T00:15:09.546Z,100034.78
2023-04-18T00:17:38.590Z,100034.88
2023-04-18T00:20:10.105Z,100037.50
2023-04-18T00:22:43.020Z,100029.91
2023-04-18T00:25:11.618Z,100030.88
2023-04-18T00:27:39.177Z,100031.63
2023-04-18T00:30:06.872Z,100027.13
2023-04-18T00:32:37.079Z,100033.53
2023-04-18T00:35:05.025Z,100033.53
2023-04-18T00:37:32.503Z,100028.31
2023-04-18T00:39:59.364Z,100026.63
2023-04-18T00:42:28.137Z,100026.41
2023-04-18T00:44:55.404Z,100025.63
2023-04-18T00:47:22.403Z,100031.72
2023-04-18T00:49:49.890Z,100025.50
2023-04-18T00:52:19.190Z,100021.28
2023-04-18T00:54:49.694Z,100018.75
2023-04-18T00:57:16.787Z,100024.06
2023-04-18T00:59:44.069Z,100016.97
2023-04-18T01:02:11.519Z,100022.44
2023-04-18T01:04:43.643Z,100023.25
2023-04-18T01:07:11.857Z,100027.78
2023-04-18T01:09:39.701Z,100027.88
2023-04-18T01:12:09.029Z,100033.25
2023-04-18T01:14:36.248Z,100028.84
2023-04-18T01:17:03.778Z,100030.78
2023-04-18T01:19:30.761Z,100022.06
2023-04-18T01:21:57.687Z,100017.56
2023-04-18T01:24:26.818Z,100010.78
2023-04-18T01:26:53.992Z,100016.19
2023-04-18T01:29:21.332Z,100017.97
2023-04-18T01:31:50.297Z,100008.94
2023-04-18T01:34:20.817Z,100012.69
2023-04-18T01:36:48.430Z,100013.72
2023-04-18T01:39:15.818Z,100012.53
2023-04-18T01:41:43.126Z,100009.19
2023-04-18T01:44:10.506Z,100009.38
2023-04-18T01:46:38.072Z,100007.63
2023-04-18T01:49:06.300Z,100016.47
2023-04-18T01:51:33.528Z,100019.94
2023-04-18T01:54:01.013Z,100011.88
2023-04-18T01:56:28.420Z,100014.94
2023-04-18T01:58:59.122Z,100017.63
2023-04-18T02:01:26.527Z,100007.97
2023-04-18T02:03:54.271Z,100011.66
2023-04-18T02:06:22.483Z,100009.91
2023-04-18T02:08:50.590Z,100012.66
2023-04-18T02:11:17.480Z,100003.06
2023-04-18T02:13:44.698Z,100009.34
2023-04-18T02:16:13.664Z,100011.91
2023-04-18T02:18:43.658Z,100011.00
2023-04-18T02:21:11.347Z,100008.47
2023-04-18T02:23:38.803Z,100003.19
2023-04-18T02:26:06.089Z,100008.47
2023-04-18T02:28:33.224Z,100009.28
2023-04-18T02:31:03.539Z,100007.78
2023-04-18T02:33:30.903Z,100004.28
2023-04-18T02:35:58.700Z,100009.41
2023-04-18T02:38:26.211Z,100008.59
2023-04-18T02:40:53.497Z,100009.50
2023-04-18T02:43:21.223Z,100000.69
2023-04-18T02:45:48.560Z,99996.38
2023-04-18T02:48:15.718Z,100002.47
2023-04-18T02:50:45.205Z,100006.06
2023-04-18T02:53:12.877Z,99998.25
2023-04-18T02:55:51.702Z,99996.59
2023-04-18T02:58:20.424Z,100001.81
2023-04-18T03:00:54.036Z,99998.44
2023-04-18T03:03:41.787Z,99999.25
2023-04-18T03:06:22.920Z,99995.78
2023-04-18T03:08:50.579Z,99998.31
2023-04-18T03:11:17.598Z,100002.81
2023-04-18T03:13:45.944Z,99998.00
2023-04-18T03:16:14.405Z,100000.72
2023-04-18T03:18:42.459Z,100002.94
2023-04-18T03:21:09.760Z,100003.41
2023-04-18T03:23:40.156Z,100003.47
2023-04-18T03:26:08.356Z,100003.31
2023-04-18T03:28:38.125Z,100011.94
2023-04-18T03:31:05.473Z,100017.53
2023-04-18T03:33:35.235Z,100015.53
2023-04-18T03:36:09.327Z,100018.88
2023-04-18T03:38:40.729Z,100012.25
2023-04-18T03:41:09.355Z,100013.88
2023-04-18T03:43:38.283Z,100015.59
2023-04-18T03:46:06.277Z,100007.63
2023-04-18T03:48:37.397Z,100012.22
2023-04-18T03:51:09.301Z,100010.28
2023-04-18T03:53:37.149Z,100008.19
2023-04-18T03:56:04.526Z,100011.66
2023-04-18T03:58:52.565Z,100017.53
2023-04-18T04:01:21.807Z,100012.59
2023-04-18T04:03:50.646Z,100016.06
2023-04-18T04:06:17.986Z,100016.88
2023-04-18T04:08:45.714Z,100015.53
2023-04-18T04:11:14.602Z,100017.25
2023-04-18T04:13:42.840Z,100015.22
2023-04-18T04:16:13.258Z,100026.28
2023-04-18T04:18:40.797Z,100026.66
2023-04-18T04:21:07.959Z,100023.63
2023-04-18T04:23:49.511Z,100023.31
2023-04-18T04:26:47.118Z,100018.66
2023-04-18T04:29:17.981Z,100029.19
2023-04-18T04:31:47.337Z,100020.97
2023-04-18T04:34:20.772Z,100017.69
2023-04-18T04:36:48.975Z,100019.50
2023-04-18T04:39:17.745Z,100014.13
2023-04-18T04:42:04.785Z,100020.41
2023-04-18T04:44:44.478Z,100031.94
2023-04-18T04:47:12.455Z,100020.50
2023-04-18T04:49:40.385Z,100031.72
2023-04-18T04:52:07.598Z,100030.53
2023-04-18T04:54:35.764Z,100039.50
2023-04-18T04:57:04.706Z,100032.63
2023-04-18T04:59:31.620Z,100039.72
2023-04-18T05:01:58.646Z,100038.06
2023-04-18T05:04:26.051Z,100038.44
2023-04-18T05:06:53.596Z,100029.28
2023-04-18T05:09:21.026Z,100033.84
2023-04-18T05:11:49.851Z,100029.38
2023-04-18T05:14:17.779Z,100035.91
2023-04-18T05:16:44.670Z,100030.75
2023-04-18T05:19:12.152Z,100024.56
2023-04-18T05:21:39.816Z,100030.97
2023-04-18T05:24:07.277Z,100033.44
2023-04-18T05:26:34.761Z,100040.16
2023-04-18T05:29:02.013Z,100030.66
2023-04-18T05:31:29.140Z,100036.72
2023-04-18T05:33:56.583Z,100032.91
2023-04-18T05:36:24.051Z,100030.25
2023-04-18T05:38:52.189Z,100027.66
2023-04-18T05:41:19.441Z,100029.31
2023-04-18T05:43:54.245Z,100024.47
2023-04-18T05:46:29.548Z,100025.06
2023-04-18T05:48:57.303Z,100033.94
2023-04-18T05:51:24.947Z,100011.22
2023-04-18T05:53:52.232Z,100006.22
2023-04-18T05:56:19.570Z,99989.81
2023-04-18T05:58:48.145Z,100008.88
2023-04-18T06:01:16.434Z,100032.78
2023-04-18T06:03:43.842Z,100038.13
2023-04-18T06:06:12.156Z,100033.09
2023-04-18T06:08:40.035Z,100030.31
2023-04-18T06:11:07.222Z,100030.63
2023-04-18T06:13:34.129Z,100029.03
2023-04-18T06:16:01.763Z,100032.03
2023-04-18T06:18:29.245Z,100023.91
2023-04-18T06:20:56.476Z,100025.53
2023-04-18T06:23:23.703Z,100027.28
2023-04-18T06:25:50.959Z,100028.47
2023-04-18T06:28:18.253Z,100035.38
2023-04-18T06:30:46.145Z,100026.56
2023-04-18T06:33:13.961Z,100015.19
2023-04-18T06:35:42.330Z,100024.41
2023-04-18T06:38:12.315Z,100025.06
2023-04-18T06:40:39.979Z,100028.22
2023-04-18T06:43:07.870Z,100026.16
2023-04-18T06:45:36.641Z,100032.03
2023-04-18T06:48:04.482Z,100032.00
2023-04-18T06:50:32.497Z,100033.38
2023-04-18T06:53:00.428Z,100029.56
2023-04-18T06:55:28.865Z,100024.25
2023-04-18T06:57:57.249Z,100029.31
2023-04-18T07:00:31.135Z,100030.09
2023-04-18T07:02:58.955Z,100022.41
2023-04-18T07:05:26.546Z,100014.72
2023-04-18T07:07:53.634Z,100024.13
2023-04-18T07:10:21.858Z,100015.78
2023-04-18T07:12:49.811Z,100022.06
2023-04-18T07:15:21.236Z,100019.56
2023-04-18T07:17:48.848Z,100022.25
2023-04-18T07:20:16.891Z,100028.38
2023-04-18T07:22:46.160Z,100029.41
2023-04-18T07:25:13.922Z,100022.28
2023-04-18T07:27:41.350Z,100022.50
2023-04-18T07:30:12.288Z,100014.25
2023-04-18T07:32:39.583Z,100016.00
2023-04-18T07:35:08.351Z,100022.53
2023-04-18T07:37:36.466Z,100013.00
2023-04-18T07:40:05.431Z,100017.41
2023-04-18T07:42:32.929Z,100017.75
2023-04-18T07:45:00.300Z,100020.41
2023-04-18T07:47:30.828Z,100014.34
2023-04-18T07:49:59.390Z,100018.16
2023-04-18T07:52:26.983Z,100017.84
2023-04-18T07:54:54.300Z,100018.84
2023-04-18T07:57:21.890Z,100009.31
2023-04-18T07:59:49.691Z,100016.66
2023-04-18T08:02:16.772Z,100014.56
2023-04-18T08:04:44.427Z,100014.38
2023-04-18T08:07:11.426Z,100010.72
2023-04-18T08:09:38.817Z,100013.88
2023-04-18T08:12:06.299Z,100008.09
2023-04-18T08:14:33.781Z,99999.66
2023-04-18T08:17:00.683Z,99999.34
2023-04-18T08:19:28.515Z,99997.38
2023-04-18T08:22:09.292Z,99991.22
2023-04-18T08:24:39.192Z,99994.38
2023-04-18T08:27:06.587Z,100002.66
2023-04-18T08:29:34.169Z,99994.25
2023-04-18T08:32:01.494Z,99978.63
2023-04-18T08:34:29.746Z,99979.06
2023-04-18T08:36:57.257Z,99978.41
2023-04-18T08:39:25.411Z,99980.22
2023-04-18T08:41:59.768Z,99975.28
2023-04-18T08:44:29.836Z,99970.50
2023-04-18T08:46:57.835Z,99976.59
2023-04-18T08:49:25.401Z,99978.84
2023-04-18T08:51:53.358Z,99970.97
2023-04-18T08:54:22.817Z,99968.66
2023-04-18T08:57:16.845Z,99965.34
2023-04-18T08:59:48.253Z,99960.00
2023-04-18T09:02:16.941Z,99969.75
2023-04-18T09:04:49.533Z,99962.16
2023-04-18T09:07:18.650Z,99968.34
2023-04-18T09:09:51.005Z,99957.34
2023-04-18T09:12:19.759Z,99954.91
2023-04-18T09:14:47.858Z,99956.81
2023-04-18T09:17:22.096Z,99953.25
2023-04-18T09:19:50.550Z,99949.41
2023-04-18T09:22:18.494Z,99943.13
2023-04-18T09:24:56.033Z,99950.34
2023-04-18T09:27:24.515Z,99950.63
2023-04-18T09:29:56.531Z,99956.44
2023-04-18T09:32:29.555Z,99954.81
2023-04-18T09:35:05.666Z,99960.69
2023-04-18T09:37:33.341Z,99954.16
2023-04-18T09:40:00.895Z,99955.28
2023-04-18T09:42:37.636Z,99961.44
2023-04-18T09:45:07.449Z,99959.03
2023-04-18T09:47:36.784Z,99961.19
2023-04-18T09:50:08.734Z,99962.47
2023-04-18T09:52:38.891Z,99953.22
2023-04-18T09:55:09.080Z,99969.31
2023-04-18T09:57:39.340Z,99951.81
2023-04-18T10:00:23.518Z,99949.28
2023-04-18T10:03:10.088Z,99948.13
2023-04-18T10:05:40.315Z,99953.47
2023-04-18T10:08:09.800Z,99962.00
2023-04-18T10:10:40.904Z,99965.69
2023-04-18T10:13:11.589Z,99953.31
2023-04-18T10:15:40.342Z,99956.22
2023-04-18T10:18:19.445Z,99952.91
2023-04-18T10:20:47.290Z,99964.53
2023-04-18T10:23:35.104Z,99954.59
2023-04-18T10:26:03.550Z,99960.66
2023-04-18T10:28:49.797Z,99953.03
2023-04-18T10:31:17.184Z,99947.88
2023-04-18T10:34:03.985Z,99955.47
2023-04-18T10:36:33.576Z,99950.22
2023-04-18T10:39:03.290Z,99948.31
2023-04-18T10:41:32.168Z,99951.81
2023-04-18T10:44:14.896Z,99956.81
2023-04-18T10:47:04.017Z,99964.00
2023-04-18T10:49:33.677Z,99961.53
2023-04-18T10:52:02.476Z,99957.59
2023-04-18T10:54:30.894Z,99958.00
2023-04-18T10:57:00.427Z,99959.81
2023-04-18T10:59:29.694Z,99957.44
2023-04-18T11:02:04.884Z,99953.88
2023-04-18T11:04:32.007Z,99957.13
2023-04-18T11:07:00.298Z,99956.19
2023-04-18T11:09:27.356Z,99946.63
2023-04-18T11:12:12.203Z,99949.88
2023-04-18T11:14:40.726Z,99947.88
2023-04-18T11:17:21.186Z,99946.38
2023-04-18T11:19:49.099Z,99941.09
2023-04-18T11:22:18.206Z,99952.75
2023-04-18T11:24:46.247Z,99937.69
2023-04-18T11:27:14.742Z,99942.09
2023-04-18T11:29:42.232Z,99941.81
2023-04-18T11:32:10.023Z,99947.03
2023-04-18T11:34:37.735Z,99940.78
2023-04-18T11:37:08.793Z,99941.69
2023-04-18T11:39:42.662Z,99938.25
2023-04-18T11:42:10.353Z,99942.78
2023-04-18T11:44:40.084Z,99932.59
2023-04-18T11:47:24.310Z,99928.34
2023-04-18T11:50:00.564Z,99928.16
2023-04-18T11:52:29.527Z,99924.03
2023-04-18T11:55:10.604Z,99932.41
2023-04-18T11:57:38.178Z,99932.16
2023-04-18T12:00:07.826Z,99930.94
2023-04-18T12:02:43.146Z,99921.59
2023-04-18T12:05:12.551Z,99928.16
2023-04-18T12:07:42.484Z,99938.38
2023-04-18T12:10:23.768Z,99926.84
2023-04-18T12:12:53.081Z,99930.59
2023-04-18T12:15:23.852Z,99937.28
2023-04-18T12:17:53.876Z,99935.50
2023-04-18T12:20:25.086Z,99938.13
2023-04-18T12:22:54.538Z,99928.97
2023-04-18T12:25:26.963Z,99937.56
2023-04-18T12:28:00.618Z,99942.38
2023-04-18T12:30:36.853Z,99943.41
2023-04-18T12:33:05.112Z,99941.75
2023-04-18T12:35:32.392Z,99950.44
2023-04-18T12:38:02.061Z,99947.63
2023-04-18T12:40:30.255Z,99941.13
2023-04-18T12:42:57.867Z,99937.84
2023-04-18T12:45:25.585Z,99942.69
2023-04-18T12:47:53.795Z,99949.88
2023-04-18T12:50:23.260Z,99945.34
2023-04-18T12:52:52.799Z,99940.69
2023-04-18T12:55:20.199Z,99938.84
2023-04-18T12:57:47.641Z,99934.06
2023-04-18T13:00:14.915Z,99939.59
2023-04-18T13:02:44.442Z,99936.53
2023-04-18T13:05:14.994Z,99935.19
2023-04-18T13:07:42.910Z,99933.72
2023-04-18T13:10:15.250Z,99928.63
2023-04-18T13:12:42.263Z,99927.47
2023-04-18T13:15:10.296Z,99932.34
2023-04-18T13:17:39.569Z,99935.09
2023-04-18T13:20:10.815Z,99930.13
2023-04-18T13:22:38.200Z,99931.56
2023-04-18T13:25:07.505Z,99932.16
2023-04-18T13:27:35.469Z,99938.81
2023-04-18T13:30:03.750Z,99936.06
2023-04-18T13:32:31.140Z,99937.34
2023-04-18T13:34:58.229Z,99935.75
2023-04-18T13:37:26.539Z,99937.69
2023-04-18T13:39:53.935Z,99937.13
2023-04-18T13:42:21.199Z,99941.84
2023-04-18T13:44:48.282Z,99945.69
2023-04-18T13:47:16.923Z,99939.41
2023-04-18T13:49:43.732Z,99936.28
2023-04-18T13:52:10.772Z,99935.84
2023-04-18T13:54:38.923Z,99937.09
2023-04-18T13:57:11.688Z,99930.66
2023-04-18T13:59:42.087Z,99931.03
2023-04-18T14:02:10.589Z,99937.69
2023-04-18T14:04:38.339Z,99941.47
2023-04-18T14:07:06.482Z,99939.97
2023-04-18T14:09:33.868Z,99930.53
2023-04-18T14:12:02.432Z,99933.38
2023-04-18T14:14:30.122Z,99930.84
2023-04-18T14:16:57.510Z,99929.25
2023-04-18T14:19:25.153Z,99931.94
2023-04-18T14:21:52.518Z,99929.34
2023-04-18T14:24:19.724Z,99932.88
2023-04-18T14:26:46.756Z,99929.28
2023-04-18T14:29:14.576Z,99931.94
2023-04-18T14:31:42.249Z,99928.75
2023-04-18T14:34:10.038Z,99930.84
2023-04-18T14:36:37.442Z,99934.38
2023-04-18T14:39:05.813Z,99932.06
2023-04-18T14:41:33.437Z,99930.84
2023-04-18T14:44:01.041Z,99925.22
2023-04-18T14:46:29.590Z,99929.50
2023-04-18T14:48:57.742Z,99924.19
2023-04-18T14:51:24.579Z,99906.38
2023-04-18T14:53:51.903Z,99896.53
2023-04-18T14:56:21.644Z,99907.88
2023-04-18T14:58:49.229Z,99909.63
2023-04-18T15:01:19.709Z,99910.47
2023-04-18T15:03:47.162Z,99901.91
2023-04-18T15:06:14.560Z,99904.56
2023-04-18T15:08:44.329Z,99903.63
2023-04-18T15:11:11.607Z,99904.47
2023-04-18T15:13:40.093Z,99898.88
2023-04-18T15:16:07.487Z,99903.75
2023-04-18T15:18:35.200Z,99891.06
2023-04-18T15:21:02.754Z,99889.25
2023-04-18T15:23:29.792Z,99896.28
2023-04-18T15:25:56.912Z,99890.88
2023-04-18T15:28:24.270Z,99888.19
2023-04-18T15:30:51.738Z,99888.97
2023-04-18T15:33:20.799Z,99887.53
2023-04-18T15:35:48.566Z,99878.34
2023-04-18T15:38:16.142Z,99887.72
2023-04-18T15:40:46.258Z,99882.13
2023-04-18T15:43:16.339Z,99880.06
2023-04-18T15:45:44.963Z,99882.41
2023-04-18T15:48:14.148Z,99875.88
2023-04-18T15:50:42.655Z,99877.06
2023-04-18T15:53:09.975Z,99869.03
2023-04-18T15:55:37.491Z,99874.19
2023-04-18T15:58:04.816Z,99877.81
2023-04-18T16:00:32.568Z,99878.06
2023-04-18T16:03:00.064Z,99872.00
2023-04-18T16:05:27.344Z,99871.28
2023-04-18T16:07:56.479Z,99873.97
2023-04-18T16:10:24.145Z,99875.09
2023-04-18T16:12:51.031Z,99870.03
2023-04-18T16:15:18.348Z,99871.38
2023-04-18T16:17:45.777Z,99871.38
2023-04-18T16:20:13.328Z,99867.00
2023-04-18T16:22:40.745Z,99862.59
2023-04-18T16:25:08.774Z,99861.53
2023-04-18T16:27:36.449Z,99858.78
2023-04-18T16:30:04.337Z,99866.66
2023-04-18T16:32:31.845Z,99867.56
2023-04-18T16:34:59.013Z,99866.72
2023-04-18T16:37:26.106Z,99867.63
2023-04-18T16:39:53.280Z,99875.59
2023-04-18T16:42:20.876Z,99863.31
2023-04-18T16:44:48.612Z,99872.13
2023-04-18T16:47:17.480Z,99859.13
2023-04-18T16:49:47.259Z,99860.13
2023-04-18T16:52:15.340Z,99862.00
2023-04-18T16:54:42.644Z,99856.72
2023-04-18T16:57:09.679Z,99855.06
2023-04-18T16:59:36.547Z,99863.47
2023-04-18T17:02:03.820Z,99856.47
2023-04-18T17:04:31.384Z,99850.72
2023-04-18T17:06:58.837Z,99850.75
2023-04-18T17:09:26.546Z,99849.31
2023-04-18T17:11:53.702Z,99847.66
2023-04-18T17:14:21.210Z,99844.53
2023-04-18T17:16:51.415Z,99840.00
2023-04-18T17:19:20.744Z,99836.66
2023-04-18T17:21:49.350Z,99840.09
2023-04-18T17:24:18.928Z,99840.75
2023-04-18T17:26:46.368Z,99835.72
2023-04-18T17:29:13.812Z,99836.09
2023-04-18T17:31:41.414Z,99839.31
2023-04-18T17:34:08.400Z,99836.50
2023-04-18T17:36:35.875Z,99836.72
2023-04-18T17:39:06.766Z,99840.94
2023-04-18T17:41:39.057Z,99838.16
2023-04-18T17:44:08.281Z,99843.13
2023-04-18T17:46:35.484Z,99835.66
2023-04-18T17:49:02.786Z,99828.63
2023-04-18T17:51:30.015Z,99830.28
2023-04-18T17:53:57.291Z,99826.91
2023-04-18T17:56:24.484Z,99829.69
2023-04-18T17:58:51.740Z,99829.59
2023-04-18T18:01:21.347Z,99830.81
2023-04-18T18:03:49.170Z,99819.34
2023-04-18T18:06:16.592Z,99822.81
2023-04-18T18:08:43.812Z,99817.97
2023-04-18T18:11:10.838Z,99814.06
2023-04-18T18:13:39.164Z,99802.66
2023-04-18T18:16:07.312Z,99810.47
2023-04-18T18:18:35.012Z,99813.00
2023-04-18T18:21:02.215Z,99810.06
2023-04-18T18:23:29.078Z,99805.78
2023-04-18T18:25:55.948Z,99803.09
2023-04-18T18:28:22.835Z,99798.53
2023-04-18T18:30:50.193Z,99792.06
2023-04-18T18:33:17.249Z,99793.72
2023-04-18T18:35:44.123Z,99785.09
2023-04-18T18:38:11.062Z,99785.88
2023-04-18T18:40:38.345Z,99783.84
2023-04-18T18:43:05.340Z,99777.94
2023-04-18T18:45:32.539Z,99777.22
2023-04-18T18:48:00.118Z,99770.13
2023-04-18T18:50:27.025Z,99769.03
2023-04-18T18:52:54.363Z,99762.09
2023-04-18T18:55:21.885Z,99762.84
2023-04-18T18:57:48.956Z,99761.81
2023-04-18T19:00:16.468Z,99768.81
2023-04-18T19:02:43.492Z,99761.81
2023-04-18T19:05:13.084Z,99754.75
2023-04-18T19:07:43.097Z,99751.84
2023-04-18T19:10:10.815Z,99751.06
2023-04-18T19:12:38.566Z,99749.19
2023-04-18T19:15:06.663Z,99740.44
2023-04-18T19:17:34.229Z,99740.97
2023-04-18T19:20:01.751Z,99741.06
2023-04-18T19:22:29.953Z,99746.47
2023-04-18T19:24:57.891Z,99741.56
2023-04-18T19:27:25.162Z,99729.09
2023-04-18T19:29:52.454Z,99739.38
2023-04-18T19:32:19.563Z,99731.41
2023-04-18T19:34:48.677Z,99736.00
2023-04-18T19:37:15.436Z,99724.50
2023-04-18T19:39:42.869Z,99727.94
2023-04-18T19:42:10.741Z,99731.63
2023-04-18T19:44:40.439Z,99728.75
2023-04-18T19:47:08.137Z,99734.84
2023-04-18T19:49:35.372Z,99730.56
2023-04-18T19:52:02.454Z,99720.94
2023-04-18T19:54:33.532Z,99724.56
2023-04-18T19:57:01.656Z,99723.81
2023-04-18T19:59:28.698Z,99719.56
2023-04-18T20:01:56.738Z,99717.84
2023-04-18T20:04:26.054Z,99713.53
2023-04-18T20:06:56.648Z,99711.88
2023-04-18T20:09:23.488Z,99706.78
2023-04-18T20:11:50.896Z,99708.53
2023-04-18T20:14:18.206Z,99706.88
2023-04-18T20:16:46.910Z,99700.03
2023-04-18T20:19:14.880Z,99707.28
2023-04-18T20:21:42.324Z,99694.34
2023-04-18T20:24:10.329Z,99697.28
2023-04-18T20:26:39.718Z,99704.53
2023-04-18T20:29:06.969Z,99699.56
2023-04-18T20:31:35.286Z,99698.94
2023-04-18T20:34:02.839Z,99699.22
2023-04-18T20:36:31.243Z,99688.09
2023-04-18T20:38:57.992Z,99685.81
2023-04-18T20:41:27.047Z,99695.63
2023-04-18T20:43:54.240Z,99688.06
2023-04-18T20:46:21.958Z,99681.34
2023-04-18T20:48:49.515Z,99676.41
2023-04-18T20:51:16.804Z,99683.78
2023-04-18T20:53:44.313Z,99679.84
2023-04-18T20:56:11.502Z,99682.97
2023-04-18T20:58:38.412Z,99685.13
2023-04-18T21:01:05.729Z,99679.38
2023-04-18T21:03:33.044Z,99676.25
2023-04-18T21:06:00.545Z,99677.50
2023-04-18T21:08:27.532Z,99686.59
2023-04-18T21:10:54.303Z,99681.66
2023-04-18T21:13:21.257Z,99674.91
2023-04-18T21:15:51.023Z,99673.19
2023-04-18T21:18:19.334Z,99673.09
2023-04-18T21:20:46.079Z,99664.34
2023-04-18T21:23:13.264Z,99656.72
2023-04-18T21:25:41.019Z,99656.50
2023-04-18T21:28:08.911Z,99650.06
2023-04-18T21:30:36.552Z,99653.91
2023-04-18T21:33:03.987Z,99654.81
2023-04-18T21:35:31.503Z,99644.28
2023-04-18T21:37:58.684Z,99639.88
2023-04-18T21:40:27.020Z,99639.28
2023-04-18T21:42:54.360Z,99637.63
2023-04-18T21:45:21.693Z,99639.16
2023-04-18T21:47:48.866Z,99632.78
2023-04-18T21:50:16.170Z,99634.44
2023-04-18T21:52:43.325Z,99631.03
2023-04-18T21:55:10.608Z,99625.69
2023-04-18T21:57:38.145Z,99630.63
2023-04-18T22:00:08.458Z,99627.97
2023-04-18T22:02:37.216Z,99624.72
2023-04-18T22:05:04.473Z,99622.38
2023-04-18T22:07:32.465Z,99623.38
2023-04-18T22:10:00.163Z,99609.63
2023-04-18T22:12:27.167Z,99612.41
2023-04-18T22:14:54.979Z,99603.91
2023-04-18T22:17:22.687Z,99607.66
2023-04-18T22:19:50.781Z,99606.88
2023-04-18T22:22:19.275Z,99606.13
2023-04-18T22:24:47.699Z,99599.97
2023-04-18T22:27:15.027Z,99605.94
2023-04-18T22:29:42.262Z,99605.91
2023-04-18T22:32:09.459Z,99600.44
2023-04-18T22:34:36.750Z,99596.66
2023-04-18T22:37:03.777Z,99591.00
2023-04-18T22:39:31.580Z,99597.63
2023-04-18T22:41:58.980Z,99587.63
2023-04-18T22:44:26.554Z,99589.09
2023-04-18T22:46:56.619Z,99583.53
2023-04-18T22:49:23.834Z,99587.75
2023-04-18T22:51:54.645Z,99587.19
2023-04-18T22:54:22.029Z,99581.53
2023-04-18T22:56:50.824Z,99580.34
2023-04-18T22:59:18.055Z,99576.69
2023-04-18T23:01:45.432Z,99572.97
2023-04-18T23:04:12.814Z,99572.94
2023-04-18T23:06:39.882Z,99568.59
2023-04-18T23:09:09.430Z,99565.03
2023-04-18T23:11:36.517Z,99556.25
2023-04-18T23:14:03.404Z,99553.78
2023-04-18T23:16:30.529Z,99552.34
2023-04-18T23:18:57.977Z,99545.28
2023-04-18T23:21:25.011Z,99543.41
2023-04-18T23:23:52.163Z,99540.88
2023-04-18T23:26:19.444Z,99538.97
2023-04-18T23:28:46.678Z,99534.13
2023-04-18T23:31:13.707Z,99541.53
2023-04-18T23:33:41.213Z,99532.28
2023-04-18T23:36:08.679Z,99533.75
2023-04-18T23:38:37.351Z,99533.13
2023-04-18T23:41:04.469Z,99535.34
2023-04-18T23:43:31.645Z,99528.88
2023-04-18T23:45:58.903Z,99527.69
2023-04-18T23:48:26.094Z,99519.63
2023-04-18T23:50:54.060Z,99524.06
2023-04-18T23:53:22.658Z,99526.97
2023-04-18T23:55:51.090Z,99524.28
2023-04-18T23:58:20.302Z,99514.56
